sensor_id;sensor_type;location;lat;lon;timestamp;pressure;altitude;pressure_sealevel;temperature;humidity
28630;BME280;15817;42.130;24.762;2023-04-24T00:00:06;99711.94;;;14.41;67.22
28630;BME280;15817;42.130;24.762;2023-04-24T00:02:32;99722.59;;;14.43;67.51
28630;BME280;15817;42.130;24.762;2023-04-24T00:04:58;99720.03;;;14.37;67.69
28630;BME280;15817;42.130;24.762;2023-04-24T00:07:28;99714.91;;;14.28;68.08
28630;BME280;15817;42.130;24.762;2023-04-24T00:09:54;99734.59;;;14.24;68.23
28630;BME280;15817;42.130;24.762;2023-04-24T00:12:20;99714.34;;;14.13;68.94
28630;BME280;15817;42.130;24.762;2023-04-24T00:14:46;99722.19;;;14.20;68.81
28630;BME280;15817;42.130;24.762;2023-04-24T00:17:12;99725.69;;;14.23;68.72
28630;BME280;15817;42.130;24.762;2023-04-24T00:19:38;99716.97;;;14.15;68.79
28630;BME280;15817;42.130;24.762;2023-04-24T00:22:04;99736.69;;;14.11;68.92
28630;BME280;15817;42.130;24.762;2023-04-24T00:24:31;99733.28;;;14.04;69.30
28630;BME280;15817;42.130;24.762;2023-04-24T00:26:56;99729.84;;;13.98;69.58
28630;BME280;15817;42.130;24.762;2023-04-24T00:29:22;99725.28;;;14.03;69.96
28630;BME280;15817;42.130;24.762;2023-04-24T00:31:48;99717.44;;;13.95;70.18
28630;BME280;15817;42.130;24.762;2023-04-24T00:34:14;99720.16;;;13.92;70.12
28630;BME280;15817;42.130;24.762;2023-04-24T00:36:40;99714.88;;;13.89;70.41
28630;BME280;15817;42.130;24.762;2023-04-24T00:39:06;99706.91;;;13.86;70.86
28630;BME280;15817;42.130;24.762;2023-04-24T00:41:34;99711.38;;;13.86;70.98
28630;BME280;15817;42.130;24.762;2023-04-24T00:43:59;99707.00;;;13.83;71.42
28630;BME280;15817;42.130;24.762;2023-04-24T00:46:26;99714.31;;;13.73;71.66
28630;BME280;15817;42.130;24.762;2023-04-24T00:48:52;99712.44;;;13.78;71.67
28630;BME280;15817;42.130;24.762;2023-04-24T00:51:18;99713.41;;;13.74;71.80
28630;BME280;15817;42.130;24.762;2023-04-24T00:53:44;99696.66;;;13.66;72.50
28630;BME280;15817;42.130;24.762;2023-04-24T00:56:09;99705.66;;;13.62;72.64
28630;BME280;15817;42.130;24.762;2023-04-24T00:58:36;99717.28;;;13.61;72.92
28630;BME280;15817;42.130;24.762;2023-04-24T01:01:02;99719.00;;;13.62;73.05
28630;BME280;15817;42.130;24.762;2023-04-24T01:03:29;99700.38;;;13.59;73.18
28630;BME280;15817;42.130;24.762;2023-04-24T01:05:58;99702.09;;;13.62;73.12
28630;BME280;15817;42.130;24.762;2023-04-24T01:08:24;99723.41;;;13.65;73.10
28630;BME280;15817;42.130;24.762;2023-04-24T01:10:52;99710.25;;;13.56;73.22
28630;BME280;15817;42.130;24.762;2023-04-24T01:13:19;99715.56;;;13.57;73.52
28630;BME280;15817;42.130;24.762;2023-04-24T01:15:45;99714.78;;;13.51;74.18
28630;BME280;15817;42.130;24.762;2023-04-24T01:18:11;99713.16;;;13.45;74.17
28630;BME280;15817;42.130;24.762;2023-04-24T01:20:41;99719.38;;;13.46;74.53
28630;BME280;15817;42.130;24.762;2023-04-24T01:23:09;99709.53;;;13.48;74.50
28630;BME280;15817;42.130;24.762;2023-04-24T01:25:36;99706.13;;;13.39;74.49
28630;BME280;15817;42.130;24.762;2023-04-24T01:28:02;99702.78;;;13.28;75.15
28630;BME280;15817;42.130;24.762;2023-04-24T01:30:29;99710.75;;;13.31;75.72
28630;BME280;15817;42.130;24.762;2023-04-24T01:32:56;99718.78;;;13.30;75.71
28630;BME280;15817;42.130;24.762;2023-04-24T01:35:22;99720.50;;;13.32;75.94
28630;BME280;15817;42.130;24.762;2023-04-24T01:37:48;99717.88;;;13.31;75.95
28630;BME280;15817;42.130;24.762;2023-04-24T01:40:15;99723.31;;;13.26;76.13
28630;BME280;15817;42.130;24.762;2023-04-24T01:42:41;99726.13;;;13.19;76.61
28630;BME280;15817;42.130;24.762;2023-04-24T01:45:10;99723.56;;;13.11;76.86
28630;BME280;15817;42.130;24.762;2023-04-24T01:47:37;99724.44;;;13.15;77.39
28630;BME280;15817;42.130;24.762;2023-04-24T01:50:04;99725.31;;;13.15;77.87
28630;BME280;15817;42.130;24.762;2023-04-24T01:52:31;99717.31;;;13.12;77.88
28630;BME280;15817;42.130;24.762;2023-04-24T01:55:03;99709.41;;;13.06;77.87
28630;BME280;15817;42.130;24.762;2023-04-24T01:57:30;99715.56;;;13.10;77.99
28630;BME280;15817;42.130;24.762;2023-04-24T01:59:56;99723.56;;;13.11;77.94
28630;BME280;15817;42.130;24.762;2023-04-24T02:02:22;99723.59;;;13.10;77.79
28630;BME280;15817;42.130;24.762;2023-04-24T02:04:55;99721.06;;;13.02;77.91
28630;BME280;15817;42.130;24.762;2023-04-24T02:07:21;99711.41;;;12.95;78.07
28630;BME280;15817;42.130;24.762;2023-04-24T02:09:47;99713.19;;;12.94;78.14
28630;BME280;15817;42.130;24.762;2023-04-24T02:12:13;99710.63;;;12.88;78.38
28630;BME280;15817;42.130;24.762;2023-04-24T02:14:39;99709.91;;;12.80;78.69
28630;BME280;15817;42.130;24.762;2023-04-24T02:17:05;99713.38;;;12.84;78.86
28630;BME280;15817;42.130;24.762;2023-04-24T02:19:33;99707.16;;;12.83;79.04
28630;BME280;15817;42.130;24.762;2023-04-24T02:21:58;99702.81;;;12.78;78.78
28630;BME280;15817;42.130;24.762;2023-04-24T02:24:24;99693.19;;;12.69;79.01
28630;BME280;15817;42.130;24.762;2023-04-24T02:26:50;99695.94;;;12.64;79.42
28630;BME280;15817;42.130;24.762;2023-04-24T02:29:16;99704.81;;;12.65;79.97
28630;BME280;15817;42.130;24.762;2023-04-24T02:31:42;99694.34;;;12.53;80.36
28630;BME280;15817;42.130;24.762;2023-04-24T02:34:07;99699.72;;;12.51;80.43
28630;BME280;15817;42.130;24.762;2023-04-24T02:36:33;99688.13;;;12.52;80.47
28630;BME280;15817;42.130;24.762;2023-04-24T02:38:59;99682.03;;;12.46;80.61
28630;BME280;15817;42.130;24.762;2023-04-24T02:41:26;99685.66;;;12.40;80.90
28630;BME280;15817;42.130;24.762;2023-04-24T02:43:57;99688.28;;;12.43;81.26
28630;BME280;15817;42.130;24.762;2023-04-24T02:46:24;99689.97;;;12.49;81.07
28630;BME280;15817;42.130;24.762;2023-04-24T02:48:49;99684.59;;;12.50;80.62
28630;BME280;15817;42.130;24.762;2023-04-24T02:51:15;99687.38;;;12.44;81.31
28630;BME280;15817;42.130;24.762;2023-04-24T02:53:41;99679.44;;;12.41;81.24
28630;BME280;15817;42.130;24.762;2023-04-24T02:56:07;99698.13;;;12.40;81.31
28630;BME280;15817;42.130;24.762;2023-04-24T02:58:32;99694.69;;;12.33;81.61
28630;BME280;15817;42.130;24.762;2023-04-24T03:00:58;99690.41;;;12.23;82.07
28630;BME280;15817;42.130;24.762;2023-04-24T03:03:24;99700.22;;;12.19;82.70
28630;BME280;15817;42.130;24.762;2023-04-24T03:05:51;99687.88;;;12.12;83.08
28630;BME280;15817;42.130;24.762;2023-04-24T03:08:16;99688.81;;;12.11;83.29
28630;BME280;15817;42.130;24.762;2023-04-24T03:10:43;99689.56;;;12.19;83.45
28630;BME280;15817;42.130;24.762;2023-04-24T03:13:09;99684.22;;;12.19;83.22
28630;BME280;15817;42.130;24.762;2023-04-24T03:15:34;99684.31;;;12.13;83.24
28630;BME280;15817;42.130;24.762;2023-04-24T03:18:00;99706.53;;;12.12;83.32
28630;BME280;15817;42.130;24.762;2023-04-24T03:20:27;99705.78;;;12.03;83.74
28630;BME280;15817;42.130;24.762;2023-04-24T03:22:55;99702.22;;;12.04;84.06
28630;BME280;15817;42.130;24.762;2023-04-24T03:25:22;99701.34;;;12.02;83.60
28630;BME280;15817;42.130;24.762;2023-04-24T03:27:48;99705.88;;;11.98;83.53
28630;BME280;15817;42.130;24.762;2023-04-24T03:30:29;99707.66;;;11.98;84.35
28630;BME280;15817;42.130;24.762;2023-04-24T03:32:58;99699.69;;;11.96;84.61
28630;BME280;15817;42.130;24.762;2023-04-24T03:35:28;99703.22;;;11.96;84.52
28630;BME280;15817;42.130;24.762;2023-04-24T03:37:55;99707.69;;;11.96;84.65
28630;BME280;15817;42.130;24.762;2023-04-24T03:40:40;99719.09;;;12.06;84.71
28630;BME280;15817;42.130;24.762;2023-04-24T03:43:17;99725.19;;;12.12;84.77
28630;BME280;15817;42.130;24.762;2023-04-24T03:45:50;99716.25;;;12.16;84.80
28630;BME280;15817;42.130;24.762;2023-04-24T03:48:24;99700.41;;;12.07;84.96
28630;BME280;15817;42.130;24.762;2023-04-24T03:50:54;99710.97;;;12.13;84.95
28630;BME280;15817;42.130;24.762;2023-04-24T03:53:19;99716.31;;;12.12;85.22
28630;BME280;15817;42.130;24.762;2023-04-24T03:55:46;99696.88;;;12.05;85.08
28630;BME280;15817;42.130;24.762;2023-04-24T03:58:14;99699.47;;;12.11;85.21
28630;BME280;15817;42.130;24.762;2023-04-24T04:00:40;99702.13;;;12.11;85.00
28630;BME280;15817;42.130;24.762;2023-04-24T04:03:42;99704.78;;;12.11;84.94
28630;BME280;15817;42.130;24.762;2023-04-24T04:06:08;99703.03;;;12.10;85.03
28630;BME280;15817;42.130;24.762;2023-04-24T04:08:36;99706.50;;;12.15;84.75
28630;BME280;15817;42.130;24.762;2023-04-24T04:11:02;99724.13;;;12.24;84.27
28630;BME280;15817;42.130;24.762;2023-04-24T04:13:28;99712.56;;;12.25;83.68
28630;BME280;15817;42.130;24.762;2023-04-24T04:15:54;99716.97;;;12.27;83.55
28630;BME280;15817;42.130;24.762;2023-04-24T04:18:20;99711.66;;;12.26;83.05
28630;BME280;15817;42.130;24.762;2023-04-24T04:20:46;99722.19;;;12.35;83.07
28630;BME280;15817;42.130;24.762;2023-04-24T04:23:14;99721.31;;;12.34;83.03
28630;BME280;15817;42.130;24.762;2023-04-24T04:25:53;99724.81;;;12.37;83.12
28630;BME280;15817;42.130;24.762;2023-04-24T04:28:23;99729.25;;;12.39;83.15
28630;BME280;15817;42.130;24.762;2023-04-24T04:30:50;99722.25;;;12.32;83.57
28630;BME280;15817;42.130;24.762;2023-04-24T04:33:24;99742.50;;;12.45;84.48
28630;BME280;15817;42.130;24.762;2023-04-24T04:35:52;99738.94;;;12.45;84.61
28630;BME280;15817;42.130;24.762;2023-04-24T04:38:18;99739.75;;;12.48;84.72
28630;BME280;15817;42.130;24.762;2023-04-24T04:40:56;99737.09;;;12.48;84.03
28630;BME280;15817;42.130;24.762;2023-04-24T04:43:25;99731.81;;;12.45;83.92
28630;BME280;15817;42.130;24.762;2023-04-24T04:45:53;99729.09;;;12.47;83.83
28630;BME280;15817;42.130;24.762;2023-04-24T04:48:32;99744.13;;;12.54;83.68
28630;BME280;15817;42.130;24.762;2023-04-24T04:51:00;99743.28;;;12.50;83.47
28630;BME280;15817;42.130;24.762;2023-04-24T04:53:27;99740.63;;;12.49;83.75
28630;BME280;15817;42.130;24.762;2023-04-24T04:55:53;99735.31;;;12.47;83.17
28630;BME280;15817;42.130;24.762;2023-04-24T04:58:21;99722.97;;;12.42;83.44
28630;BME280;15817;42.130;24.762;2023-04-24T05:00:51;99729.94;;;12.52;83.09
28630;BME280;15817;42.130;24.762;2023-04-24T05:03:31;99720.16;;;12.51;83.14
28630;BME280;15817;42.130;24.762;2023-04-24T05:06:07;99719.38;;;12.46;83.39
28630;BME280;15817;42.130;24.762;2023-04-24T05:08:36;99733.31;;;12.63;83.26
28630;BME280;15817;42.130;24.762;2023-04-24T05:11:03;99712.97;;;12.56;83.07
28630;BME280;15817;42.130;24.762;2023-04-24T05:13:33;99727.91;;;12.67;83.46
28630;BME280;15817;42.130;24.762;2023-04-24T05:16:02;99717.25;;;12.66;83.07
28630;BME280;15817;42.130;24.762;2023-04-24T05:18:33;99726.88;;;12.76;82.86
28630;BME280;15817;42.130;24.762;2023-04-24T05:21:00;99725.78;;;12.86;82.60
28630;BME280;15817;42.130;24.762;2023-04-24T05:23:27;99720.44;;;12.86;82.05
28630;BME280;15817;42.130;24.762;2023-04-24T05:26:00;99718.63;;;12.88;81.61
28630;BME280;15817;42.130;24.762;2023-04-24T05:28:26;99704.44;;;12.86;81.86
28630;BME280;15817;42.130;24.762;2023-04-24T05:31:05;99708.88;;;12.87;81.35
28630;BME280;15817;42.130;24.762;2023-04-24T05:33:32;99716.84;;;12.90;81.92
28630;BME280;15817;42.130;24.762;2023-04-24T05:35:58;99694.72;;;12.82;82.03
28630;BME280;15817;42.130;24.762;2023-04-24T05:38:36;99696.28;;;12.94;81.87
28630;BME280;15817;42.130;24.762;2023-04-24T05:41:05;99699.72;;;13.02;81.50
28630;BME280;15817;42.130;24.762;2023-04-24T05:43:31;99701.38;;;13.07;81.37
28630;BME280;15817;42.130;24.762;2023-04-24T05:45:57;99695.09;;;13.10;80.74
28630;BME280;15817;42.130;24.762;2023-04-24T05:48:22;99699.53;;;13.11;80.68
28630;BME280;15817;42.130;24.762;2023-04-24T05:50:49;99702.09;;;13.17;80.54
28630;BME280;15817;42.130;24.762;2023-04-24T05:53:18;99698.63;;;13.12;80.04
28630;BME280;15817;42.130;24.762;2023-04-24T05:55:45;99703.09;;;13.12;80.37
28630;BME280;15817;42.130;24.762;2023-04-24T05:58:11;99699.50;;;13.13;80.47
28630;BME280;15817;42.130;24.762;2023-04-24T06:00:40;99694.28;;;13.06;80.79
28630;BME280;15817;42.130;24.762;2023-04-24T06:03:11;99685.41;;;13.04;81.35
28630;BME280;15817;42.130;24.762;2023-04-24T06:05:37;99707.56;;;13.10;81.50
28630;BME280;15817;42.130;24.762;2023-04-24T06:08:03;99705.81;;;13.09;81.37
28630;BME280;15817;42.130;24.762;2023-04-24T06:10:34;99708.63;;;13.01;82.39
28630;BME280;15817;42.130;24.762;2023-04-24T06:13:00;99705.06;;;13.02;82.34
28630;BME280;15817;42.130;24.762;2023-04-24T06:15:30;99716.47;;;13.09;83.03
28630;BME280;15817;42.130;24.762;2023-04-24T06:18:05;99697.88;;;13.04;83.43
28630;BME280;15817;42.130;24.762;2023-04-24T06:20:31;99696.75;;;13.19;85.28
28630;BME280;15817;42.130;24.762;2023-04-24T06:22:57;99699.31;;;13.25;84.13
28630;BME280;15817;42.130;24.762;2023-04-24T06:25:25;99696.63;;;13.25;83.92
28630;BME280;15817;42.130;24.762;2023-04-24T06:27:52;99699.28;;;13.26;84.49
28630;BME280;15817;42.130;24.762;2023-04-24T06:30:17;99708.13;;;13.28;84.67
28630;BME280;15817;42.130;24.762;2023-04-24T06:32:43;99692.13;;;13.27;85.07
28630;BME280;15817;42.130;24.762;2023-04-24T06:35:12;99701.84;;;13.31;84.88
28630;BME280;15817;42.130;24.762;2023-04-24T06:37:42;99705.41;;;13.30;84.69
28630;BME280;15817;42.130;24.762;2023-04-24T06:40:08;99700.13;;;13.27;84.27
28630;BME280;15817;42.130;24.762;2023-04-24T06:42:35;99698.31;;;13.29;83.84
28630;BME280;15817;42.130;24.762;2023-04-24T06:45:03;99708.09;;;13.30;84.05
28630;BME280;15817;42.130;24.762;2023-04-24T06:47:30;99695.66;;;13.29;84.09
28630;BME280;15817;42.130;24.762;2023-04-24T06:49:59;99701.81;;;13.32;84.32
28630;BME280;15817;42.130;24.762;2023-04-24T06:52:24;99704.47;;;13.34;84.71
28630;BME280;15817;42.130;24.762;2023-04-24T06:54:50;99701.78;;;13.34;83.98
28630;BME280;15817;42.130;24.762;2023-04-24T06:57:19;99703.41;;;13.41;83.89
28630;BME280;15817;42.130;24.762;2023-04-24T06:59:45;99703.34;;;13.46;83.89
28630;BME280;15817;42.130;24.762;2023-04-24T07:02:10;99712.09;;;13.52;84.02
28630;BME280;15817;42.130;24.762;2023-04-24T07:04:36;99703.28;;;13.49;83.47
28630;BME280;15817;42.130;24.762;2023-04-24T07:07:02;99705.91;;;13.50;83.03
28630;BME280;15817;42.130;24.762;2023-04-24T07:09:28;99711.97;;;13.60;83.10
28630;BME280;15817;42.130;24.762;2023-04-24T07:11:54;99695.03;;;13.61;83.44
28630;BME280;15817;42.130;24.762;2023-04-24T07:14:25;99710.91;;;13.67;82.22
28630;BME280;15817;42.130;24.762;2023-04-24T07:16:50;99709.13;;;13.67;82.43
28630;BME280;15817;42.130;24.762;2023-04-24T07:19:16;99707.09;;;13.78;82.50
28630;BME280;15817;42.130;24.762;2023-04-24T07:21:42;99705.38;;;13.74;82.32
28630;BME280;15817;42.130;24.762;2023-04-24T07:24:08;99711.34;;;13.87;82.78
28630;BME280;15817;42.130;24.762;2023-04-24T07:26:38;99707.69;;;13.93;82.22
28630;BME280;15817;42.130;24.762;2023-04-24T07:29:05;99699.25;;;14.09;82.36
28630;BME280;15817;42.130;24.762;2023-04-24T07:31:34;99693.59;;;14.23;80.12
28630;BME280;15817;42.130;24.762;2023-04-24T07:33:59;99698.59;;;14.38;78.67
28630;BME280;15817;42.130;24.762;2023-04-24T07:36:25;99692.38;;;14.39;78.26
28630;BME280;15817;42.130;24.762;2023-04-24T07:38:51;99692.47;;;14.33;78.43
28630;BME280;15817;42.130;24.762;2023-04-24T07:41:20;99703.13;;;14.35;80.06
28630;BME280;15817;42.130;24.762;2023-04-24T07:43:46;99708.13;;;14.52;80.65
28630;BME280;15817;42.130;24.762;2023-04-24T07:46:12;99708.56;;;14.69;79.72
28630;BME280;15817;42.130;24.762;2023-04-24T07:48:40;99693.66;;;14.93;77.75
28630;BME280;15817;42.130;24.762;2023-04-24T07:51:06;99695.31;;;15.31;76.18
28630;BME280;15817;42.130;24.762;2023-04-24T07:53:33;99700.59;;;15.66;75.33
28630;BME280;15817;42.130;24.762;2023-04-24T07:55:59;99688.28;;;15.88;73.06
28630;BME280;15817;42.130;24.762;2023-04-24T07:58:25;99678.69;;;16.09;70.99
28630;BME280;15817;42.130;24.762;2023-04-24T08:00:59;99693.47;;;16.50;70.02
28630;BME280;15817;42.130;24.762;2023-04-24T08:03:25;99694.06;;;16.86;68.32
28630;BME280;15817;42.130;24.762;2023-04-24T08:05:51;99685.94;;;17.14;65.76
28630;BME280;15817;42.130;24.762;2023-04-24T08:08:17;99685.13;;;16.86;66.92
28630;BME280;15817;42.130;24.762;2023-04-24T08:10:43;99695.63;;;16.67;68.30
28630;BME280;15817;42.130;24.762;2023-04-24T08:13:09;99676.16;;;16.87;68.60
28630;BME280;15817;42.130;24.762;2023-04-24T08:15:36;99690.88;;;17.26;66.21
28630;BME280;15817;42.130;24.762;2023-04-24T08:18:02;99663.50;;;17.65;64.86
28630;BME280;15817;42.130;24.762;2023-04-24T08:20:28;99669.94;;;18.06;64.00
28630;BME280;15817;42.130;24.762;2023-04-24T08:22:54;99663.88;;;17.78;63.50
28630;BME280;15817;42.130;24.762;2023-04-24T08:25:20;99660.91;;;17.37;65.31
28630;BME280;15817;42.130;24.762;2023-04-24T08:27:48;99659.44;;;17.04;66.04
28630;BME280;15817;42.130;24.762;2023-04-24T08:30:22;99654.09;;;17.52;64.41
28630;BME280;15817;42.130;24.762;2023-04-24T08:32:48;99666.75;;;17.96;62.41
28630;BME280;15817;42.130;24.762;2023-04-24T08:35:15;99647.97;;;17.95;61.65
28630;BME280;15817;42.130;24.762;2023-04-24T08:37:41;99643.84;;;18.30;60.41
28630;BME280;15817;42.130;24.762;2023-04-24T08:40:13;99645.13;;;18.65;60.96
28630;BME280;15817;42.130;24.762;2023-04-24T08:42:45;99642.78;;;18.98;59.86
28630;BME280;15817;42.130;24.762;2023-04-24T08:45:12;99627.94;;;19.08;58.44
28630;BME280;15817;42.130;24.762;2023-04-24T08:47:39;99636.00;;;19.28;58.05
28630;BME280;15817;42.130;24.762;2023-04-24T08:50:06;99637.91;;;19.46;58.50
28630;BME280;15817;42.130;24.762;2023-04-24T08:52:35;99638.88;;;19.64;57.35
28630;BME280;15817;42.130;24.762;2023-04-24T08:55:01;99632.22;;;19.73;56.38
28630;BME280;15817;42.130;24.762;2023-04-24T08:57:28;99633.06;;;19.92;56.07
28630;BME280;15817;42.130;24.762;2023-04-24T08:59:56;99627.28;;;20.00;55.80
28630;BME280;15817;42.130;24.762;2023-04-24T09:02:28;99617.22;;;19.66;56.30
28630;BME280;15817;42.130;24.762;2023-04-24T09:04:56;99611.47;;;19.92;56.18
28630;BME280;15817;42.130;24.762;2023-04-24T09:07:22;99616.81;;;19.94;56.96
28630;BME280;15817;42.130;24.762;2023-04-24T09:09:50;99618.69;;;20.10;56.19
28630;BME280;15817;42.130;24.762;2023-04-24T09:12:17;99618.38;;;20.35;56.34
28630;BME280;15817;42.130;24.762;2023-04-24T09:14:44;99623.97;;;20.67;56.18
28630;BME280;15817;42.130;24.762;2023-04-24T09:17:18;99618.75;;;20.64;54.31
28630;BME280;15817;42.130;24.762;2023-04-24T09:19:44;99618.91;;;20.60;53.88
28630;BME280;15817;42.130;24.762;2023-04-24T09:22:10;99609.91;;;20.77;53.32
28630;BME280;15817;42.130;24.762;2023-04-24T09:24:36;99611.13;;;20.72;51.97
28630;BME280;15817;42.130;24.762;2023-04-24T09:27:02;99613.91;;;20.87;52.98
28630;BME280;15817;42.130;24.762;2023-04-24T09:29:32;99607.88;;;21.00;51.17
28630;BME280;15817;42.130;24.762;2023-04-24T09:32:18;99612.69;;;20.93;50.47
28630;BME280;15817;42.130;24.762;2023-04-24T09:34:47;99594.41;;;20.81;50.70
28630;BME280;15817;42.130;24.762;2023-04-24T09:37:29;99602.84;;;21.09;50.37
28630;BME280;15817;42.130;24.762;2023-04-24T09:40:13;99603.53;;;21.30;49.56
28630;BME280;15817;42.130;24.762;2023-04-24T09:42:40;99588.41;;;21.43;48.65
28630;BME280;15817;42.130;24.762;2023-04-24T09:45:12;99593.47;;;21.49;48.38
28630;BME280;15817;42.130;24.762;2023-04-24T09:47:40;99582.56;;;21.51;47.47
28630;BME280;15817;42.130;24.762;2023-04-24T09:50:18;99576.69;;;21.58;48.80
28630;BME280;15817;42.130;24.762;2023-04-24T09:52:57;99573.66;;;21.64;48.93
28630;BME280;15817;42.130;24.762;2023-04-24T09:55:25;99578.13;;;21.81;49.07
28630;BME280;15817;42.130;24.762;2023-04-24T09:58:00;99573.25;;;21.88;49.04
28630;BME280;15817;42.130;24.762;2023-04-24T10:00:29;99583.28;;;21.86;48.22
28630;BME280;15817;42.130;24.762;2023-04-24T10:03:03;99567.66;;;21.91;48.68
28630;BME280;15817;42.130;24.762;2023-04-24T10:05:35;99556.22;;;21.86;49.64
28630;BME280;15817;42.130;24.762;2023-04-24T10:08:10;99562.34;;;21.89;49.49
28630;BME280;15817;42.130;24.762;2023-04-24T10:10:43;99571.53;;;22.02;48.07
28630;BME280;15817;42.130;24.762;2023-04-24T10:13:10;99569.97;;;22.14;49.03
28630;BME280;15817;42.130;24.762;2023-04-24T10:15:38;99560.59;;;22.20;49.48
28630;BME280;15817;42.130;24.762;2023-04-24T10:18:12;99557.88;;;22.20;50.37
28630;BME280;15817;42.130;24.762;2023-04-24T10:20:39;99557.34;;;22.29;49.33
28630;BME280;15817;42.130;24.762;2023-04-24T10:23:06;99540.41;;;22.25;49.86
28630;BME280;15817;42.130;24.762;2023-04-24T10:25:40;99537.16;;;22.19;49.33
28630;BME280;15817;42.130;24.762;2023-04-24T10:28:07;99547.03;;;22.35;49.13
28630;BME280;15817;42.130;24.762;2023-04-24T10:30:43;99523.44;;;22.22;48.78
28630;BME280;15817;42.130;24.762;2023-04-24T10:33:12;99529.41;;;22.13;50.18
28630;BME280;15817;42.130;24.762;2023-04-24T10:35:45;99535.25;;;22.21;50.95
28630;BME280;15817;42.130;24.762;2023-04-24T10:38:18;99534.75;;;22.44;50.91
28630;BME280;15817;42.130;24.762;2023-04-24T10:40:49;99509.31;;;22.47;50.75
28630;BME280;15817;42.130;24.762;2023-04-24T10:43:17;99516.66;;;22.45;50.11
28630;BME280;15817;42.130;24.762;2023-04-24T10:46:09;99510.19;;;22.47;50.76
28630;BME280;15817;42.130;24.762;2023-04-24T10:48:53;99506.00;;;22.42;50.18
28630;BME280;15817;42.130;24.762;2023-04-24T10:51:50;99506.69;;;22.45;49.55
28630;BME280;15817;42.130;24.762;2023-04-24T10:54:26;99495.38;;;22.53;50.37
28630;BME280;15817;42.130;24.762;2023-04-24T11:02:52;99478.00;;;22.71;50.48
28630;BME280;15817;42.130;24.762;2023-04-24T11:05:20;99485.22;;;22.56;49.51
28630;BME280;15817;42.130;24.762;2023-04-24T11:08:22;99483.19;;;22.60;50.65
28630;BME280;15817;42.130;24.762;2023-04-24T11:11:04;99474.94;;;22.47;50.43
28630;BME280;15817;42.130;24.762;2023-04-24T11:19:04;99470.91;;;22.24;51.75
28630;BME280;15817;42.130;24.762;2023-04-24T11:21:48;99469.16;;;21.78;52.96
28630;BME280;15817;42.130;24.762;2023-04-24T11:26:58;99455.44;;;21.49;53.47
28630;BME280;15817;42.130;24.762;2023-04-24T11:35:18;99452.69;;;21.81;53.10
28630;BME280;15817;42.130;24.762;2023-04-24T11:38:04;99442.25;;;21.75;52.86
28630;BME280;15817;42.130;24.762;2023-04-24T11:40:35;99456.34;;;21.95;52.77
28630;BME280;15817;42.130;24.762;2023-04-24T11:43:02;99445.75;;;22.22;53.15
28630;BME280;15817;42.130;24.762;2023-04-24T11:45:51;99444.63;;;22.40;52.07
28630;BME280;15817;42.130;24.762;2023-04-24T11:48:20;99444.75;;;22.53;52.01
28630;BME280;15817;42.130;24.762;2023-04-24T11:50:46;99439.50;;;22.50;51.57
28630;BME280;15817;42.130;24.762;2023-04-24T11:53:12;99429.25;;;22.55;51.23
28630;BME280;15817;42.130;24.762;2023-04-24T11:55:41;99419.88;;;22.61;51.37
28630;BME280;15817;42.130;24.762;2023-04-24T11:58:07;99405.16;;;22.65;50.98
28630;BME280;15817;42.130;24.762;2023-04-24T12:00:33;99412.47;;;22.79;51.10
28630;BME280;15817;42.130;24.762;2023-04-24T12:03:07;99407.13;;;22.77;50.67
28630;BME280;15817;42.130;24.762;2023-04-24T12:05:33;99401.53;;;22.80;51.86
28630;BME280;15817;42.130;24.762;2023-04-24T12:08:00;99394.16;;;22.82;51.16
28630;BME280;15817;42.130;24.762;2023-04-24T12:10:29;99375.97;;;22.84;50.88
28630;BME280;15817;42.130;24.762;2023-04-24T12:12:58;99371.00;;;22.77;51.13
28630;BME280;15817;42.130;24.762;2023-04-24T12:15:24;99368.78;;;22.83;52.27
28630;BME280;15817;42.130;24.762;2023-04-24T12:17:52;99348.00;;;22.96;52.19
28630;BME280;15817;42.130;24.762;2023-04-24T12:20:27;99344.25;;;22.85;51.61
28630;BME280;15817;42.130;24.762;2023-04-24T12:22:55;99336.97;;;22.99;52.20
28630;BME280;15817;42.130;24.762;2023-04-24T12:25:29;99334.66;;;23.07;51.83
28630;BME280;15817;42.130;24.762;2023-04-24T12:30:32;99323.81;;;22.93;52.01
28630;BME280;15817;42.130;24.762;2023-04-24T12:33:17;99315.25;;;23.14;52.03
28630;BME280;15817;42.130;24.762;2023-04-24T12:35:47;99316.22;;;23.13;51.90
28630;BME280;15817;42.130;24.762;2023-04-24T12:38:16;99300.94;;;22.97;50.96
28630;BME280;15817;42.130;24.762;2023-04-24T12:41:11;99301.34;;;22.91;51.26
28630;BME280;15817;42.130;24.762;2023-04-24T12:43:37;99309.28;;;22.94;52.00
28630;BME280;15817;42.130;24.762;2023-04-24T12:46:04;99301.53;;;23.02;52.68
28630;BME280;15817;42.130;24.762;2023-04-24T12:48:50;99292.31;;;23.05;51.27
28630;BME280;15817;42.130;24.762;2023-04-24T12:51:25;99287.25;;;23.13;51.01
28630;BME280;15817;42.130;24.762;2023-04-24T12:53:51;99280.66;;;23.17;51.64
28630;BME280;15817;42.130;24.762;2023-04-24T12:56:17;99279.81;;;23.02;49.76
28630;BME280;15817;42.130;24.762;2023-04-24T12:58:43;99271.09;;;22.97;50.55
28630;BME280;15817;42.130;24.762;2023-04-24T13:01:09;99270.22;;;22.97;50.59
28630;BME280;15817;42.130;24.762;2023-04-24T13:03:35;99263.19;;;22.94;49.44
28630;BME280;15817;42.130;24.762;2023-04-24T13:06:01;99261.63;;;22.90;49.16
28630;BME280;15817;42.130;24.762;2023-04-24T13:08:27;99263.19;;;22.94;49.46
28630;BME280;15817;42.130;24.762;2023-04-24T13:10:52;99256.94;;;23.06;49.54
28630;BME280;15817;42.130;24.762;2023-04-24T13:13:39;99253.81;;;23.13;49.67
28630;BME280;15817;42.130;24.762;2023-04-24T13:16:05;99245.38;;;22.90;49.70
28630;BME280;15817;42.130;24.762;2023-04-24T13:18:31;99253.31;;;22.93;49.93
28630;BME280;15817;42.130;24.762;2023-04-24T13:20:59;99235.50;;;22.89;49.92